Main page
METAR-TAF:

METAR-TAF

Airports :

Alicante–Elche Airport

Alicante, Spain

latitude: 38-17N, longitude: 000-33W, elevation: 43 m

Current weather observation

The report was made 16 minutes ago, at 03:00 UTC
Wind 2 kt from the North/Northwest
Temperature 17°C
Humidity 77%
Pressure 1024 hPa
Visibility 10 km or more
no clouds below 1500 m and no cumulonimbus

METAR: LEAL 260300Z 33002KT CAVOK 17/13 Q1024 NOSIG

Time: 05:16 (03:16 UTC)

Forecast

The report was made 4 hours and 16 minutes ago, at 23:00 UTC
Forecast valid from 26 at 00 UTC to 26 at 24 UTC
Wind 5 kt from the North
Visibility 10 km or more
Few clouds at a height of 4000 ft
Becoming
from 26 at 07 UTC to 26 at 09 UTC
Wind 15 kt from the East/Northeast
Temporary
from 26 at 12 UTC to 26 at 18 UTC
Wind 15 kt from the East/Northeast with gusts up to 30 kt
Becoming
from 26 at 20 UTC to 26 at 22 UTC
Wind 10 kt from the North

TAF: LEAL 252300Z 2600/2624 01005KT 9999 FEW040 TX27/2612Z TN16/2606Z BECMG 2607/2609 07015KT TEMPO 2612/2618 07015G30KT BECMG 2620/2622 01010KT

Weather observations and forecasts of more than 4000 airports (METAR and TAF reports).

The available stations are represented by yellow and red dots on the map.

Hover mouse over dot to see the name of the station.

Then click to see weather observations and forecasts.

To change the map : click on the green buttons with a black cross to zoom in, on the green button with a dash to zoom out, or on the green arrows for adjacent maps.


METAR-TAF: